createdAt,value
2024-04-30T00:02:24.571Z,13.95
2024-04-30T00:04:51.184Z,13.93
2024-04-30T00:07:17.855Z,13.92
2024-04-30T00:09:45.520Z,13.87
2024-04-30T00:12:12.031Z,13.90
2024-04-30T00:14:38.586Z,13.88
2024-04-30T00:17:05.054Z,13.79
2024-04-30T00:19:31.660Z,13.76
2024-04-30T00:21:58.253Z,13.68
2024-04-30T00:24:24.784Z,13.66
2024-04-30T00:26:51.283Z,13.67
2024-04-30T00:29:17.797Z,13.65
2024-04-30T00:31:44.351Z,13.63
2024-04-30T00:34:10.933Z,13.63
2024-04-30T00:36:38.954Z,13.61
2024-04-30T00:39:06.219Z,13.59
2024-04-30T00:41:32.894Z,13.59
2024-04-30T00:43:59.455Z,13.61
2024-04-30T00:46:26.181Z,13.59
2024-04-30T00:48:52.848Z,13.53
2024-04-30T00:51:19.401Z,13.54
2024-04-30T00:53:45.943Z,13.59
2024-04-30T00:56:13.057Z,13.65
2024-04-30T00:58:39.613Z,13.65
2024-04-30T01:01:06.708Z,13.68
2024-04-30T01:03:33.587Z,13.66
2024-04-30T01:06:00.329Z,13.63
2024-04-30T01:08:26.848Z,13.66
2024-04-30T01:10:53.376Z,13.62
2024-04-30T01:13:20.070Z,13.62
2024-04-30T01:15:48.111Z,13.59
2024-04-30T01:18:15.163Z,13.55
2024-04-30T01:20:41.891Z,13.58
2024-04-30T01:23:08.395Z,13.56
2024-04-30T01:25:35.003Z,13.57
2024-04-30T01:28:01.631Z,13.58
2024-04-30T01:30:28.138Z,13.57
2024-04-30T01:32:55.513Z,13.57
2024-04-30T01:35:22.114Z,13.55
2024-04-30T01:37:48.609Z,13.48
2024-04-30T01:40:15.230Z,13.48
2024-04-30T01:42:41.724Z,13.48
2024-04-30T01:45:08.339Z,13.47
2024-04-30T01:47:34.971Z,13.45
2024-04-30T01:50:01.503Z,13.41
2024-04-30T01:52:28.104Z,13.41
2024-04-30T01:54:54.681Z,13.43
2024-04-30T01:57:21.191Z,13.45
2024-04-30T01:59:47.711Z,13.42
2024-04-30T02:02:14.361Z,13.46
2024-04-30T02:04:46.545Z,13.49
2024-04-30T02:07:16.596Z,13.52
2024-04-30T02:09:43.189Z,13.52
2024-04-30T02:12:09.750Z,13.46
2024-04-30T02:14:36.305Z,13.48
2024-04-30T02:17:03.000Z,13.51
2024-04-30T02:19:29.618Z,13.53
2024-04-30T02:21:56.251Z,13.55
2024-04-30T02:24:23.133Z,13.55
2024-04-30T02:26:49.626Z,13.56
2024-04-30T02:29:16.115Z,13.58
2024-04-30T02:32:01.297Z,13.58
2024-04-30T02:34:28.094Z,13.56
2024-04-30T02:36:55.788Z,13.57
2024-04-30T02:39:22.995Z,13.56
2024-04-30T02:41:50.092Z,13.56
2024-04-30T02:44:16.694Z,13.54
2024-04-30T02:46:43.324Z,13.51
2024-04-30T02:49:10.068Z,13.52
2024-04-30T02:51:36.725Z,13.52
2024-04-30T02:54:03.294Z,13.53
2024-04-30T02:56:29.799Z,13.56
2024-04-30T02:58:56.336Z,13.57
2024-04-30T03:01:22.901Z,13.59
2024-04-30T03:03:49.496Z,13.58
2024-04-30T03:06:16.062Z,13.56
2024-04-30T03:08:42.776Z,13.55
2024-04-30T03:11:09.586Z,13.54
2024-04-30T03:13:36.372Z,13.54
2024-04-30T03:16:06.236Z,13.54
2024-04-30T03:18:32.793Z,13.54
2024-04-30T03:20:59.341Z,13.52
2024-04-30T03:23:25.848Z,13.54
2024-04-30T03:25:52.357Z,13.53
2024-04-30T03:28:18.934Z,13.49
2024-04-30T03:30:45.546Z,13.50
2024-04-30T03:33:12.233Z,13.47
2024-04-30T03:35:38.839Z,13.48
2024-04-30T03:38:05.361Z,13.48
2024-04-30T03:40:32.118Z,13.47
2024-04-30T03:42:58.760Z,13.50
2024-04-30T03:45:25.328Z,13.49
2024-04-30T03:47:51.914Z,13.46
2024-04-30T03:50:18.447Z,13.47
2024-04-30T03:52:44.967Z,13.47
2024-04-30T03:55:11.484Z,13.47
2024-04-30T03:57:38.089Z,13.49
2024-04-30T04:00:04.917Z,13.50
2024-04-30T04:02:31.522Z,13.50
2024-04-30T04:04:58.175Z,13.48
2024-04-30T04:07:24.806Z,13.46
2024-04-30T04:09:51.346Z,13.41
2024-04-30T04:12:36.391Z,13.41
2024-04-30T04:15:02.990Z,13.43
2024-04-30T04:17:29.619Z,13.39
2024-04-30T04:19:56.595Z,13.38
2024-04-30T04:22:23.192Z,13.39
2024-04-30T04:24:49.871Z,13.38
2024-04-30T04:27:16.397Z,13.39
2024-04-30T04:29:42.919Z,13.35
2024-04-30T04:32:09.477Z,13.35
2024-04-30T04:34:40.682Z,13.34
2024-04-30T04:37:07.265Z,13.36
2024-04-30T04:39:33.791Z,13.34
2024-04-30T04:42:00.414Z,13.38
2024-04-30T04:44:26.892Z,13.39
2024-04-30T04:46:53.469Z,13.37
2024-04-30T04:49:20.122Z,13.40
2024-04-30T04:51:46.743Z,13.41
2024-04-30T04:54:13.318Z,13.41
2024-04-30T04:56:39.893Z,13.41
2024-04-30T04:59:06.446Z,13.38
2024-04-30T05:01:33.161Z,13.41
2024-04-30T05:03:59.883Z,13.44
2024-04-30T05:06:26.485Z,13.43
2024-04-30T05:08:53.161Z,13.43
2024-04-30T05:11:19.767Z,13.44
2024-04-30T05:13:46.326Z,13.42
2024-04-30T05:16:12.937Z,13.43
2024-04-30T05:18:39.509Z,13.44
2024-04-30T05:21:06.286Z,13.45
2024-04-30T05:23:32.899Z,13.43
2024-04-30T05:25:59.507Z,13.44
2024-04-30T05:28:26.143Z,13.45
2024-04-30T05:30:53.515Z,13.46
2024-04-30T05:33:20.146Z,13.49
2024-04-30T05:35:46.810Z,13.52
2024-04-30T05:38:13.427Z,13.52
2024-04-30T05:40:40.079Z,13.54
2024-04-30T05:43:10.288Z,13.56
2024-04-30T05:45:36.864Z,13.55
2024-04-30T05:48:03.756Z,13.53
2024-04-30T05:50:30.309Z,13.53
2024-04-30T05:52:56.850Z,13.54
2024-04-30T05:55:23.720Z,13.53
2024-04-30T05:57:50.289Z,13.56
2024-04-30T06:00:16.932Z,13.53
2024-04-30T06:02:43.530Z,13.55
2024-04-30T06:05:10.192Z,13.58
2024-04-30T06:07:36.968Z,13.61
2024-04-30T06:10:03.806Z,13.63
2024-04-30T06:12:30.379Z,13.65
2024-04-30T06:14:56.901Z,13.67
2024-04-30T06:17:23.987Z,13.64
2024-04-30T06:19:50.495Z,13.68
2024-04-30T06:22:17.025Z,13.72
2024-04-30T06:24:43.586Z,13.72
2024-04-30T06:27:10.127Z,13.74
2024-04-30T06:29:38.809Z,13.75
2024-04-30T06:32:06.509Z,13.71
2024-04-30T06:34:33.250Z,13.75
2024-04-30T06:36:59.764Z,13.77
2024-04-30T06:39:26.565Z,13.79
2024-04-30T06:41:53.131Z,13.82
2024-04-30T06:44:21.317Z,13.86
2024-04-30T06:46:47.861Z,13.84
2024-04-30T06:49:14.454Z,13.84
2024-04-30T06:51:41.564Z,13.83
2024-04-30T06:54:08.377Z,13.82
2024-04-30T06:56:34.931Z,13.84
2024-04-30T06:59:01.476Z,13.85
2024-04-30T07:01:28.086Z,13.87
2024-04-30T07:03:54.606Z,13.87
2024-04-30T07:06:21.214Z,13.89
2024-04-30T07:08:47.756Z,13.93
2024-04-30T07:11:14.322Z,13.96
2024-04-30T07:13:41.034Z,13.98
2024-04-30T07:16:07.725Z,13.99
2024-04-30T07:18:34.471Z,13.98
2024-04-30T07:21:01.987Z,14.01
2024-04-30T07:23:28.537Z,14.06
2024-04-30T07:25:55.142Z,14.13
2024-04-30T07:28:21.699Z,14.19
2024-04-30T07:30:48.265Z,14.26
2024-04-30T07:33:15.021Z,14.30
2024-04-30T07:35:41.902Z,14.37
2024-04-30T07:38:08.434Z,14.39
2024-04-30T07:40:35.010Z,14.45
2024-04-30T07:43:01.573Z,14.54
2024-04-30T07:45:28.055Z,14.58
2024-04-30T07:47:55.062Z,14.56
2024-04-30T07:50:21.799Z,14.63
2024-04-30T07:52:48.365Z,14.68
2024-04-30T07:55:14.933Z,14.81
2024-04-30T07:57:41.438Z,14.88
2024-04-30T08:00:11.410Z,14.98
2024-04-30T08:02:38.325Z,15.05
2024-04-30T08:05:05.159Z,15.10
2024-04-30T08:07:31.735Z,15.09
2024-04-30T08:09:58.310Z,15.14
2024-04-30T08:12:24.856Z,15.28
2024-04-30T08:14:51.376Z,15.33
2024-04-30T08:17:17.998Z,15.33
2024-04-30T08:19:49.422Z,15.44
2024-04-30T08:22:16.060Z,15.46
2024-04-30T08:24:42.638Z,15.57
2024-04-30T08:27:09.162Z,15.65
2024-04-30T08:29:35.666Z,15.86
2024-04-30T08:32:02.701Z,15.97
2024-04-30T08:34:29.280Z,16.05
2024-04-30T08:36:55.827Z,16.10
2024-04-30T08:39:22.370Z,16.23
2024-04-30T08:41:49.626Z,16.45
2024-04-30T08:44:17.595Z,16.56
2024-04-30T08:46:46.686Z,16.54
2024-04-30T08:49:20.396Z,16.69
2024-04-30T08:51:56.868Z,16.75
2024-04-30T08:54:26.472Z,16.70
2024-04-30T08:56:53.446Z,16.68
2024-04-30T08:59:20.085Z,16.75
2024-04-30T09:01:52.350Z,16.82
2024-04-30T09:04:19.036Z,16.89
2024-04-30T09:06:45.638Z,16.90
2024-04-30T09:09:15.707Z,16.97
2024-04-30T09:11:43.211Z,16.99
2024-04-30T09:14:09.984Z,16.95
2024-04-30T09:16:49.958Z,17.06
2024-04-30T09:19:27.069Z,17.27
2024-04-30T09:22:04.523Z,17.37
2024-04-30T09:24:31.450Z,17.24
2024-04-30T09:26:58.133Z,17.14
2024-04-30T09:29:34.888Z,17.18
2024-04-30T09:32:01.437Z,17.19
2024-04-30T09:34:41.002Z,17.27
2024-04-30T09:37:18.236Z,17.34
2024-04-30T09:39:47.601Z,17.37
2024-04-30T09:42:15.840Z,17.45
2024-04-30T09:44:43.163Z,17.60
2024-04-30T09:47:10.434Z,17.77
2024-04-30T09:49:38.367Z,17.82
2024-04-30T09:52:07.416Z,18.06
2024-04-30T09:54:37.575Z,18.32
2024-04-30T09:57:07.499Z,18.53
2024-04-30T09:59:34.106Z,18.65
2024-04-30T10:02:07.376Z,18.77
2024-04-30T10:04:35.904Z,18.95
2024-04-30T10:07:04.433Z,19.06
2024-04-30T10:09:31.439Z,19.22
2024-04-30T10:11:57.984Z,19.34
2024-04-30T10:14:33.898Z,19.33
2024-04-30T10:17:01.087Z,19.34
2024-04-30T10:19:28.761Z,19.28
2024-04-30T10:21:55.500Z,19.48
2024-04-30T10:24:24.292Z,19.69
2024-04-30T10:26:51.820Z,19.90
2024-04-30T10:29:19.140Z,20.06
2024-04-30T10:31:48.605Z,20.10
2024-04-30T10:34:15.513Z,20.16
2024-04-30T10:36:46.948Z,20.29
2024-04-30T10:39:23.636Z,20.48
2024-04-30T10:41:50.319Z,20.67
2024-04-30T10:44:17.305Z,20.81
2024-04-30T10:46:44.490Z,20.94
2024-04-30T10:49:13.285Z,21.09
2024-04-30T10:51:39.976Z,21.24
2024-04-30T10:54:06.778Z,21.33
2024-04-30T10:56:33.446Z,21.27
2024-04-30T10:59:01.293Z,21.24
2024-04-30T11:01:33.339Z,21.31
2024-04-30T11:04:11.529Z,21.41
2024-04-30T11:06:42.268Z,21.58
2024-04-30T11:09:11.317Z,21.66
2024-04-30T11:11:50.636Z,21.75
2024-04-30T11:14:19.018Z,21.73
2024-04-30T11:16:48.656Z,21.67
2024-04-30T11:19:15.979Z,21.77
2024-04-30T11:21:43.005Z,22.01
2024-04-30T11:24:12.422Z,22.23
2024-04-30T11:26:39.357Z,22.29
2024-04-30T11:29:22.592Z,22.49
2024-04-30T11:31:52.818Z,22.52
2024-04-30T11:34:19.458Z,22.47
2024-04-30T11:36:47.366Z,22.29
2024-04-30T11:39:14.385Z,22.44
2024-04-30T11:41:43.683Z,22.41
2024-04-30T11:44:15.116Z,22.56
2024-04-30T11:46:41.750Z,22.60
2024-04-30T11:49:08.371Z,22.74
2024-04-30T11:51:34.848Z,22.89
2024-04-30T11:54:01.408Z,22.73
2024-04-30T11:56:30.810Z,22.85
2024-04-30T11:58:57.499Z,23.10
2024-04-30T12:01:24.191Z,23.35
2024-04-30T12:03:51.035Z,23.53
2024-04-30T12:06:17.695Z,23.69
2024-04-30T12:08:44.195Z,24.03
2024-04-30T12:11:10.758Z,24.31
2024-04-30T12:13:40.827Z,24.73
2024-04-30T12:16:07.664Z,25.25
2024-04-30T12:18:35.044Z,25.57
2024-04-30T12:21:01.811Z,26.10
2024-04-30T12:23:28.464Z,26.44
2024-04-30T12:25:55.634Z,26.85
2024-04-30T12:28:22.222Z,27.27
2024-04-30T12:30:48.835Z,27.78
2024-04-30T12:33:16.995Z,27.98
2024-04-30T12:35:46.333Z,28.29
2024-04-30T12:38:14.528Z,28.57
2024-04-30T12:40:42.214Z,28.74
2024-04-30T12:43:08.933Z,29.02
2024-04-30T12:45:35.470Z,29.40
2024-04-30T12:48:02.266Z,29.55
2024-04-30T12:50:28.902Z,30.21
2024-04-30T12:52:55.700Z,30.14
2024-04-30T12:55:22.286Z,30.54
2024-04-30T12:57:48.923Z,30.84
2024-04-30T13:00:15.954Z,31.40
2024-04-30T13:02:42.582Z,31.19
2024-04-30T13:05:09.249Z,31.20
2024-04-30T13:07:35.920Z,31.02
2024-04-30T13:10:02.593Z,31.01
2024-04-30T13:12:29.266Z,31.01
2024-04-30T13:14:55.824Z,31.24
2024-04-30T13:17:25.147Z,31.51
2024-04-30T13:19:51.844Z,31.17
2024-04-30T13:22:18.596Z,31.11
2024-04-30T13:24:45.133Z,31.63
2024-04-30T13:27:13.771Z,31.81
2024-04-30T13:29:42.870Z,31.98
2024-04-30T13:32:09.442Z,32.03
2024-04-30T13:34:36.749Z,32.28
2024-04-30T13:37:03.519Z,32.80
2024-04-30T13:39:30.091Z,32.90
2024-04-30T13:41:57.767Z,32.50
2024-04-30T13:44:24.356Z,31.80
2024-04-30T13:46:50.882Z,31.16
2024-04-30T13:49:17.380Z,30.58
2024-04-30T13:51:44.009Z,30.20
2024-04-30T13:54:10.523Z,29.75
2024-04-30T13:56:37.124Z,29.42
2024-04-30T13:59:07.190Z,29.06
2024-04-30T14:01:35.637Z,28.92
2024-04-30T14:04:02.394Z,28.68
2024-04-30T14:06:29.242Z,28.42
2024-04-30T14:08:55.853Z,28.14
2024-04-30T14:11:22.414Z,27.81
2024-04-30T14:13:48.971Z,27.64
2024-04-30T14:16:15.881Z,27.40
2024-04-30T14:18:42.806Z,27.35
2024-04-30T14:21:11.706Z,27.42
2024-04-30T14:23:38.287Z,27.34
2024-04-30T14:26:07.770Z,27.42
2024-04-30T14:28:35.803Z,27.29
2024-04-30T14:31:02.434Z,27.18
2024-04-30T14:33:29.108Z,27.04
2024-04-30T14:36:14.307Z,27.10
2024-04-30T14:38:40.798Z,26.98
2024-04-30T14:41:07.989Z,26.76
2024-04-30T14:43:35.919Z,26.54
2024-04-30T14:46:02.460Z,26.48
2024-04-30T14:48:29.039Z,26.49
2024-04-30T14:50:55.914Z,26.28
2024-04-30T14:53:22.734Z,26.13
2024-04-30T14:55:49.578Z,25.93
2024-04-30T14:58:16.403Z,25.87
2024-04-30T15:00:43.013Z,25.87
2024-04-30T15:03:09.702Z,25.91
2024-04-30T15:05:36.338Z,25.92
2024-04-30T15:08:03.200Z,25.95
2024-04-30T15:10:31.351Z,25.80
2024-04-30T15:12:57.931Z,25.71
2024-04-30T15:15:24.599Z,25.59
2024-04-30T15:17:51.316Z,25.82
2024-04-30T15:20:17.874Z,26.41
2024-04-30T15:22:44.475Z,26.83
2024-04-30T15:25:11.084Z,27.14
2024-04-30T15:27:37.603Z,27.59
2024-04-30T15:30:05.079Z,27.78
2024-04-30T15:32:31.795Z,27.75
2024-04-30T15:34:59.053Z,27.62
2024-04-30T15:37:29.252Z,27.74
2024-04-30T15:39:55.801Z,27.57
2024-04-30T15:42:22.362Z,27.26
2024-04-30T15:44:48.936Z,27.00
2024-04-30T15:47:15.518Z,26.75
2024-04-30T15:49:42.100Z,26.61
2024-04-30T15:52:09.037Z,26.55
2024-04-30T15:54:35.621Z,26.44
2024-04-30T15:57:03.695Z,26.31
2024-04-30T15:59:33.268Z,26.18
2024-04-30T16:01:59.869Z,26.03
2024-04-30T16:04:26.961Z,25.90
2024-04-30T16:06:53.766Z,25.81
2024-04-30T16:09:20.406Z,25.63
2024-04-30T16:11:47.162Z,25.63
2024-04-30T16:14:13.816Z,25.58
2024-04-30T16:16:41.178Z,25.59
2024-04-30T16:19:11.845Z,25.53
2024-04-30T16:21:38.469Z,25.49
2024-04-30T16:24:07.205Z,25.46
2024-04-30T16:26:33.729Z,25.52
2024-04-30T16:29:00.306Z,25.49
2024-04-30T16:31:26.842Z,25.33
2024-04-30T16:33:53.436Z,25.41
2024-04-30T16:36:22.885Z,25.26
2024-04-30T16:38:50.643Z,25.15
2024-04-30T16:41:17.437Z,25.09
2024-04-30T16:43:44.008Z,25.09
2024-04-30T16:46:10.575Z,25.08
2024-04-30T16:48:37.552Z,24.95
2024-04-30T16:51:12.683Z,24.89
2024-04-30T16:53:39.422Z,24.85
2024-04-30T16:56:06.944Z,24.82
2024-04-30T16:58:33.511Z,24.67
2024-04-30T17:01:00.358Z,24.68
2024-04-30T17:03:27.003Z,24.63
2024-04-30T17:05:53.622Z,24.64
2024-04-30T17:08:20.642Z,24.62
2024-04-30T17:10:47.228Z,24.61
2024-04-30T17:13:13.945Z,24.55
2024-04-30T17:15:41.655Z,24.42
2024-04-30T17:18:08.261Z,24.38
2024-04-30T17:20:35.129Z,24.37
2024-04-30T17:23:02.405Z,24.33
2024-04-30T17:25:28.891Z,24.23
2024-04-30T17:27:55.439Z,24.08
2024-04-30T17:30:21.989Z,24.03
2024-04-30T17:32:48.684Z,24.00
2024-04-30T17:35:15.199Z,23.94
2024-04-30T17:37:41.689Z,23.83
2024-04-30T17:40:09.011Z,23.76
2024-04-30T17:42:37.576Z,23.65
2024-04-30T17:45:04.687Z,23.60
2024-04-30T17:47:31.294Z,23.43
2024-04-30T17:49:57.922Z,23.28
2024-04-30T17:52:24.457Z,23.23
2024-04-30T17:54:51.005Z,23.14
2024-04-30T17:57:17.565Z,23.15
2024-04-30T17:59:44.143Z,23.07
2024-04-30T18:02:10.677Z,22.98
2024-04-30T18:04:37.255Z,22.96
2024-04-30T18:07:04.120Z,22.95
2024-04-30T18:09:30.782Z,22.90
2024-04-30T18:14:24.236Z,22.65
2024-04-30T18:16:50.905Z,22.55
2024-04-30T18:19:17.537Z,22.54
2024-04-30T18:21:44.521Z,22.43
2024-04-30T18:24:11.330Z,22.30
2024-04-30T18:26:41.556Z,22.27
2024-04-30T18:29:08.536Z,22.22
2024-04-30T18:31:35.337Z,22.10
2024-04-30T18:34:02.383Z,22.02
2024-04-30T18:36:29.048Z,21.89
2024-04-30T18:38:55.626Z,21.77
2024-04-30T18:41:28.307Z,21.61
2024-04-30T18:43:58.307Z,21.52
2024-04-30T18:46:24.935Z,21.44
2024-04-30T18:48:51.809Z,21.37
2024-04-30T18:51:19.004Z,21.29
2024-04-30T18:53:45.656Z,21.24
2024-04-30T18:56:17.754Z,21.15
2024-04-30T18:58:46.011Z,21.10
2024-04-30T19:01:12.987Z,20.96
2024-04-30T19:03:39.838Z,20.91
2024-04-30T19:06:10.839Z,20.78
2024-04-30T19:08:37.789Z,20.62
2024-04-30T19:11:05.479Z,20.61
2024-04-30T19:13:32.965Z,20.54
2024-04-30T19:16:03.773Z,20.47
2024-04-30T19:18:31.113Z,20.37
2024-04-30T19:20:58.058Z,20.32
2024-04-30T19:23:34.056Z,20.20
2024-04-30T19:26:01.704Z,20.10
2024-04-30T19:28:28.470Z,19.96
2024-04-30T19:30:55.074Z,19.91
2024-04-30T19:33:21.899Z,19.83
2024-04-30T19:35:48.535Z,19.76
2024-04-30T19:38:15.744Z,19.75
2024-04-30T19:40:43.690Z,19.64
2024-04-30T19:43:13.063Z,19.60
2024-04-30T19:45:40.734Z,19.51
2024-04-30T19:48:07.792Z,19.42
2024-04-30T19:50:34.425Z,19.38
2024-04-30T19:53:00.940Z,19.35
2024-04-30T19:55:27.432Z,19.31
2024-04-30T19:57:54.184Z,19.22
2024-04-30T20:00:20.812Z,19.10
2024-04-30T20:02:47.498Z,19.09
2024-04-30T20:05:15.854Z,19.06
2024-04-30T20:07:42.683Z,18.84
2024-04-30T20:10:09.460Z,18.72
2024-04-30T20:12:36.432Z,18.78
2024-04-30T20:15:03.189Z,18.79
2024-04-30T20:17:29.720Z,18.79
2024-04-30T20:19:56.284Z,18.73
2024-04-30T20:22:22.796Z,18.67
2024-04-30T20:24:49.380Z,18.62
2024-04-30T20:27:15.996Z,18.55
2024-04-30T20:29:42.524Z,18.45
2024-04-30T20:32:09.013Z,18.40
2024-04-30T20:34:35.525Z,18.38
2024-04-30T20:37:02.120Z,18.34
2024-04-30T20:39:28.732Z,18.22
2024-04-30T20:41:55.513Z,18.12
2024-04-30T20:44:22.023Z,17.96
2024-04-30T20:46:48.548Z,17.92
2024-04-30T20:49:15.177Z,17.93
2024-04-30T20:51:43.738Z,17.88
2024-04-30T20:54:11.138Z,17.88
2024-04-30T20:56:40.960Z,17.91
2024-04-30T20:59:10.021Z,17.92
2024-04-30T21:01:36.577Z,17.85
2024-04-30T21:04:03.474Z,17.91
2024-04-30T21:06:30.146Z,17.86
2024-04-30T21:08:56.687Z,17.80
2024-04-30T21:11:23.339Z,17.74
2024-04-30T21:13:49.962Z,17.73
2024-04-30T21:16:17.673Z,17.72
2024-04-30T21:18:45.340Z,17.73
2024-04-30T21:21:12.091Z,17.78
2024-04-30T21:23:42.942Z,17.73
2024-04-30T21:26:10.098Z,17.57
2024-04-30T21:28:39.767Z,17.61
2024-04-30T21:31:06.365Z,17.65
2024-04-30T21:33:33.164Z,17.56
2024-04-30T21:36:00.122Z,17.46
2024-04-30T21:38:26.618Z,17.48
2024-04-30T21:40:53.254Z,17.45
2024-04-30T21:43:19.806Z,17.48
2024-04-30T21:45:46.341Z,17.51
2024-04-30T21:48:12.920Z,17.59
2024-04-30T21:50:39.513Z,17.67
2024-04-30T21:53:06.068Z,17.63
2024-04-30T21:55:32.560Z,17.64
2024-04-30T21:57:59.295Z,17.65
2024-04-30T22:00:25.951Z,17.72
2024-04-30T22:02:57.509Z,17.77
2024-04-30T22:05:26.881Z,17.73
2024-04-30T22:07:53.473Z,17.70
2024-04-30T22:10:20.095Z,17.69
2024-04-30T22:12:47.531Z,17.55
2024-04-30T22:15:14.132Z,17.44
2024-04-30T22:17:40.761Z,17.41
2024-04-30T22:20:08.508Z,17.28
2024-04-30T22:22:35.039Z,17.13
2024-04-30T22:25:01.546Z,17.11
2024-04-30T22:27:28.219Z,17.08
2024-04-30T22:29:58.114Z,17.08
2024-04-30T22:32:33.150Z,17.12
2024-04-30T22:34:59.770Z,17.17
2024-04-30T22:37:26.272Z,17.20
2024-04-30T22:39:52.869Z,17.22
2024-04-30T22:42:19.492Z,17.16
2024-04-30T22:44:46.124Z,17.14
2024-04-30T22:47:14.117Z,17.17
2024-04-30T22:49:42.015Z,17.20
2024-04-30T22:52:08.563Z,17.20
2024-04-30T22:54:35.078Z,17.13
2024-04-30T22:57:01.611Z,17.11
2024-04-30T22:59:28.241Z,17.14
2024-04-30T23:01:54.768Z,17.14
2024-04-30T23:04:21.446Z,17.11
2024-04-30T23:06:48.089Z,17.14
2024-04-30T23:09:14.666Z,17.16
2024-04-30T23:11:41.191Z,17.07
2024-04-30T23:14:07.715Z,17.10
2024-04-30T23:16:37.855Z,17.12
2024-04-30T23:19:04.409Z,17.11
2024-04-30T23:21:31.027Z,17.04
2024-04-30T23:23:57.541Z,16.82
2024-04-30T23:26:24.090Z,16.77
2024-04-30T23:28:50.615Z,16.72
2024-04-30T23:31:17.140Z,16.61
2024-04-30T23:33:43.714Z,16.59
2024-04-30T23:36:10.375Z,16.66
2024-04-30T23:38:36.956Z,16.71
2024-04-30T23:41:03.554Z,16.76
2024-04-30T23:43:30.070Z,16.79
2024-04-30T23:45:56.677Z,16.80
2024-04-30T23:48:23.278Z,16.82
2024-04-30T23:50:49.799Z,16.85
2024-04-30T23:53:16.307Z,16.88
2024-04-30T23:55:42.837Z,16.88
2024-04-30T23:58:11.262Z,16.90
